createdAt,value
2019-05-07T00:01:23.479Z,22.05
2019-05-07T00:03:53.052Z,23.52
2019-05-07T00:06:23.186Z,20.70
2019-05-07T00:08:52.842Z,22.75
2019-05-07T00:11:22.507Z,22.00
2019-05-07T00:13:52.359Z,21.55
2019-05-07T00:16:22.548Z,23.30
2019-05-07T00:18:52.634Z,23.85
2019-05-07T00:21:23.339Z,23.13
2019-05-07T00:23:53.252Z,21.17
2019-05-07T00:26:22.771Z,23.12
2019-05-07T00:28:52.800Z,20.80
2019-05-07T00:31:23.506Z,20.10
2019-05-07T00:33:52.980Z,25.33
2019-05-07T00:36:34.248Z,21.37
2019-05-07T00:39:22.065Z,22.65
2019-05-07T00:41:57.883Z,19.60
2019-05-07T00:44:27.866Z,19.98
2019-05-07T00:46:57.365Z,20.57
2019-05-07T00:49:28.238Z,20.95
2019-05-07T00:51:57.810Z,21.27
2019-05-07T00:54:27.326Z,23.10
2019-05-07T00:56:57.013Z,20.70
2019-05-07T00:59:26.513Z,22.07
2019-05-07T01:01:56.014Z,21.42
2019-05-07T01:04:25.523Z,22.58
2019-05-07T01:06:55.018Z,22.47
2019-05-07T01:09:24.524Z,21.67
2019-05-07T01:11:54.030Z,20.73
2019-05-07T01:14:23.540Z,20.00
2019-05-07T01:16:53.103Z,19.45
2019-05-07T01:19:22.647Z,21.52
2019-05-07T01:21:52.616Z,21.12
2019-05-07T01:24:23.342Z,21.48
2019-05-07T01:26:53.134Z,22.82
2019-05-07T01:29:22.861Z,18.10
2019-05-07T01:31:58.375Z,17.93
2019-05-07T01:34:34.058Z,22.17
2019-05-07T01:37:03.572Z,20.08
2019-05-07T01:39:33.179Z,18.75
2019-05-07T01:42:02.712Z,20.02
2019-05-07T01:44:32.694Z,18.05
2019-05-07T01:47:02.668Z,17.57
2019-05-07T01:49:33.126Z,18.98
2019-05-07T01:52:03.292Z,20.95
2019-05-07T01:54:33.401Z,17.32
2019-05-07T01:57:03.158Z,19.80
2019-05-07T01:59:32.790Z,17.35
2019-05-07T02:02:09.080Z,18.87
2019-05-07T02:04:44.755Z,19.00
2019-05-07T02:07:33.393Z,16.20
2019-05-07T02:10:22.755Z,15.65
2019-05-07T02:12:52.672Z,15.00
2019-05-07T02:15:22.696Z,13.78
2019-05-07T02:17:52.669Z,15.40
2019-05-07T02:20:22.638Z,15.20
2019-05-07T02:22:53.231Z,16.35
2019-05-07T02:25:22.884Z,15.98
2019-05-07T02:27:52.905Z,15.00
2019-05-07T02:30:23.868Z,17.67
2019-05-07T02:32:54.108Z,14.45
2019-05-07T02:35:23.952Z,13.13
2019-05-07T02:38:06.580Z,20.77
2019-05-07T02:40:43.311Z,15.93
2019-05-07T02:43:14.057Z,13.83
2019-05-07T02:45:54.222Z,11.63
2019-05-07T02:48:27.532Z,11.80
2019-05-07T02:51:04.084Z,13.40
2019-05-07T02:53:42.821Z,11.22
2019-05-07T02:56:13.028Z,9.30
2019-05-07T02:58:43.482Z,10.38
2019-05-07T03:01:14.030Z,10.48
2019-05-07T03:03:44.939Z,9.75
2019-05-07T03:06:14.710Z,9.63
2019-05-07T03:08:44.495Z,11.57
2019-05-07T03:11:14.399Z,10.23
2019-05-07T03:13:44.001Z,9.93
2019-05-07T03:16:13.586Z,11.90
2019-05-07T03:18:44.703Z,12.18
2019-05-07T03:21:16.430Z,14.47
2019-05-07T03:24:05.002Z,13.05
2019-05-07T03:26:38.923Z,13.53
2019-05-07T03:29:13.202Z,15.48
2019-05-07T03:32:06.135Z,17.45
2019-05-07T03:34:45.827Z,16.10
2019-05-07T03:37:13.603Z,13.93
2019-05-07T03:39:44.353Z,15.28
2019-05-07T03:42:13.917Z,15.78
2019-05-07T03:44:53.780Z,17.57
2019-05-07T03:47:32.932Z,17.27
2019-05-07T03:50:03.212Z,17.80
2019-05-07T03:52:33.535Z,15.95
2019-05-07T03:55:03.859Z,18.50
2019-05-07T03:57:33.813Z,17.98
2019-05-07T04:00:04.407Z,14.43
2019-05-07T04:02:34.117Z,13.70
2019-05-07T04:05:04.499Z,12.73
2019-05-07T04:07:34.178Z,10.50
2019-05-07T04:10:04.877Z,10.95
2019-05-07T04:12:35.026Z,11.85
2019-05-07T04:15:05.737Z,13.75
2019-05-07T04:17:35.234Z,12.03
2019-05-07T04:20:04.998Z,11.73
2019-05-07T04:22:35.669Z,13.90
2019-05-07T04:25:24.056Z,12.47
2019-05-07T04:28:03.689Z,13.83
2019-05-07T04:30:34.269Z,11.90
2019-05-07T04:33:06.047Z,10.43
2019-05-07T04:35:53.533Z,9.05
2019-05-07T04:38:23.835Z,10.18
2019-05-07T04:40:53.694Z,10.90
2019-05-07T04:43:23.601Z,13.80
2019-05-07T04:45:53.854Z,12.58
2019-05-07T04:48:23.727Z,15.50
2019-05-07T04:50:55.536Z,14.78
2019-05-07T04:53:25.049Z,13.95
2019-05-07T04:55:54.566Z,14.75
2019-05-07T04:58:26.572Z,17.62
2019-05-07T05:00:55.273Z,14.23
2019-05-07T05:03:26.619Z,14.18
2019-05-07T05:05:56.130Z,14.50
2019-05-07T05:08:25.671Z,14.45
2019-05-07T05:10:55.208Z,15.98
2019-05-07T05:13:25.003Z,15.40
2019-05-07T05:15:54.508Z,14.28
2019-05-07T05:18:24.020Z,19.45
2019-05-07T05:21:18.574Z,14.30
2019-05-07T05:23:56.004Z,15.35
2019-05-07T05:26:25.521Z,15.75
2019-05-07T05:28:56.403Z,17.00
2019-05-07T05:31:25.986Z,20.05
2019-05-07T05:33:55.495Z,17.12
2019-05-07T05:36:24.999Z,16.97
2019-05-07T05:38:54.523Z,15.55
2019-05-07T05:41:25.597Z,15.18
2019-05-07T05:44:02.496Z,20.35
2019-05-07T05:46:33.163Z,21.40
2019-05-07T05:49:02.802Z,18.42
2019-05-07T05:51:52.517Z,20.57
2019-05-07T05:54:34.814Z,23.30
2019-05-07T05:57:32.125Z,19.20
2019-05-07T06:00:18.878Z,22.37
2019-05-07T06:02:57.107Z,23.62
2019-05-07T06:05:42.879Z,26.12
2019-05-07T06:08:37.272Z,18.73
2019-05-07T06:11:26.157Z,19.00
2019-05-07T06:14:02.302Z,21.50
2019-05-07T06:16:36.731Z,24.45
2019-05-07T06:19:16.825Z,21.48
2019-05-07T06:22:16.758Z,32.88
2019-05-07T06:24:56.402Z,20.00
2019-05-07T06:27:26.078Z,21.40
2019-05-07T06:29:55.592Z,18.30
2019-05-07T06:32:25.111Z,16.23
2019-05-07T06:34:54.647Z,17.37
2019-05-07T06:37:24.177Z,17.50
2019-05-07T06:40:25.717Z,18.05
2019-05-07T06:43:08.868Z,15.72
2019-05-07T06:45:42.261Z,17.40
2019-05-07T06:48:12.675Z,19.32
2019-05-07T06:50:56.591Z,16.97
2019-05-07T06:53:29.408Z,15.53
2019-05-07T06:56:02.529Z,20.48
2019-05-07T06:58:45.933Z,21.50
2019-05-07T07:01:38.378Z,15.50
2019-05-07T07:04:22.521Z,18.80
2019-05-07T07:07:04.562Z,16.45
2019-05-07T07:09:53.095Z,22.67
2019-05-07T07:12:26.103Z,11.30
2019-05-07T07:14:58.068Z,17.20
2019-05-07T07:17:26.945Z,20.55
2019-05-07T07:19:56.527Z,15.63
2019-05-07T07:22:26.059Z,23.67
2019-05-07T07:24:55.568Z,10.48
2019-05-07T07:27:25.119Z,18.62
2019-05-07T07:30:16.500Z,22.65
2019-05-07T07:32:47.226Z,17.15
2019-05-07T07:35:18.206Z,13.05
2019-05-07T07:37:47.723Z,14.18
2019-05-07T07:40:29.325Z,12.93
2019-05-07T07:42:58.835Z,14.58
2019-05-07T07:45:28.429Z,13.27
2019-05-07T07:47:57.935Z,11.70
2019-05-07T07:50:27.521Z,16.80
2019-05-07T07:52:57.024Z,11.10
2019-05-07T07:55:33.217Z,16.47
2019-05-07T07:58:22.202Z,13.90
2019-05-07T08:01:12.198Z,11.12
2019-05-07T08:03:41.888Z,9.63
2019-05-07T08:06:11.956Z,11.38
2019-05-07T08:08:42.463Z,8.58
2019-05-07T08:11:12.779Z,12.05
2019-05-07T08:13:42.550Z,10.23
2019-05-07T08:16:13.160Z,10.98
2019-05-07T08:18:43.821Z,11.88
2019-05-07T08:21:13.321Z,10.65
2019-05-07T08:23:42.830Z,9.50
2019-05-07T08:26:12.664Z,13.83
2019-05-07T08:28:42.228Z,11.65
2019-05-07T08:31:24.981Z,12.13
2019-05-07T08:34:03.444Z,16.27
2019-05-07T08:36:33.225Z,11.95
2019-05-07T08:39:02.779Z,17.30
2019-05-07T08:41:33.363Z,12.37
2019-05-07T08:44:14.615Z,15.38
2019-05-07T08:46:58.615Z,12.00
2019-05-07T08:49:36.898Z,8.43
2019-05-07T08:52:03.518Z,11.48
2019-05-07T08:54:33.637Z,8.45
2019-05-07T08:57:03.221Z,6.20
2019-05-07T08:59:33.906Z,5.70
2019-05-07T09:02:03.705Z,12.63
2019-05-07T09:04:33.213Z,11.40
2019-05-07T09:07:02.966Z,9.05
2019-05-07T09:09:32.789Z,10.50
2019-05-07T09:12:03.212Z,8.53
2019-05-07T09:14:32.808Z,12.20
2019-05-07T09:17:02.901Z,8.87
2019-05-07T09:19:46.777Z,13.60
2019-05-07T09:22:04.383Z,9.15
2019-05-07T09:24:33.882Z,11.33
2019-05-07T09:27:24.757Z,11.20
2019-05-07T09:30:16.074Z,13.57
2019-05-07T09:32:52.209Z,8.55
2019-05-07T09:35:25.267Z,12.00
2019-05-07T09:37:54.786Z,11.10
2019-05-07T09:40:24.292Z,15.03
2019-05-07T09:42:53.797Z,9.33
2019-05-07T09:45:23.366Z,9.55
2019-05-07T09:47:52.863Z,15.30
2019-05-07T09:50:22.380Z,12.18
2019-05-07T09:52:52.046Z,12.50
2019-05-07T09:55:23.373Z,9.20
2019-05-07T09:57:52.915Z,9.23
2019-05-07T10:00:23.259Z,11.27
2019-05-07T10:02:52.949Z,8.78
2019-05-07T10:05:22.536Z,11.03
2019-05-07T10:07:52.611Z,7.42
2019-05-07T10:10:22.390Z,7.15
2019-05-07T10:13:17.051Z,8.63
2019-05-07T10:15:46.612Z,9.45
2019-05-07T10:18:17.649Z,14.90
2019-05-07T10:20:47.226Z,11.73
2019-05-07T10:23:22.393Z,8.98
2019-05-07T10:25:53.329Z,8.50
2019-05-07T10:28:23.310Z,9.20
2019-05-07T10:30:54.329Z,12.33
2019-05-07T10:33:24.870Z,8.58
2019-05-07T10:35:54.459Z,6.80
2019-05-07T10:38:23.980Z,12.25
2019-05-07T10:40:53.565Z,11.63
2019-05-07T10:43:23.148Z,10.08
2019-05-07T10:46:12.637Z,8.60
2019-05-07T10:48:59.073Z,7.33
2019-05-07T10:51:28.586Z,12.60
2019-05-07T10:53:58.125Z,11.33
2019-05-07T10:56:27.708Z,9.60
2019-05-07T10:58:57.333Z,7.97
2019-05-07T11:01:34.129Z,11.83
2019-05-07T11:04:03.720Z,11.95
2019-05-07T11:06:33.222Z,14.03
2019-05-07T11:09:02.783Z,6.10
2019-05-07T11:11:33.905Z,8.43
2019-05-07T11:14:03.490Z,8.28
2019-05-07T11:16:37.372Z,9.68
2019-05-07T11:19:06.892Z,11.60
2019-05-07T11:21:36.468Z,7.83
2019-05-07T11:24:06.041Z,9.40
2019-05-07T11:26:35.551Z,9.38
2019-05-07T11:29:05.218Z,9.80
2019-05-07T11:31:35.682Z,9.58
2019-05-07T11:34:05.255Z,7.90
2019-05-07T11:36:34.863Z,10.28
2019-05-07T11:39:06.271Z,6.40
2019-05-07T11:41:47.272Z,10.03
2019-05-07T11:44:23.002Z,8.08
2019-05-07T11:47:12.303Z,10.80
2019-05-07T11:49:59.779Z,7.62
2019-05-07T11:52:35.783Z,8.43
2019-05-07T11:55:06.354Z,9.68
2019-05-07T11:57:35.908Z,10.03
2019-05-07T12:00:05.871Z,11.25
2019-05-07T12:02:35.390Z,11.75
2019-05-07T12:05:05.035Z,9.63
2019-05-07T12:07:34.527Z,11.83
2019-05-07T12:10:05.069Z,12.73
2019-05-07T12:12:34.550Z,12.15
2019-05-07T12:15:04.180Z,10.32
2019-05-07T12:17:33.759Z,9.18
2019-05-07T12:20:05.392Z,12.10
2019-05-07T12:22:47.367Z,11.20
2019-05-07T12:25:19.466Z,10.03
2019-05-07T12:27:50.529Z,9.78
2019-05-07T12:33:49.283Z,11.25
2019-05-07T12:36:18.876Z,9.30
2019-05-07T12:38:48.384Z,7.90
2019-05-07T12:41:33.207Z,11.15
2019-05-07T12:44:03.020Z,11.95
2019-05-07T12:46:33.808Z,9.90
2019-05-07T12:49:03.561Z,11.33
2019-05-07T12:51:38.543Z,9.33
2019-05-07T12:54:27.349Z,10.53
2019-05-07T12:56:56.988Z,11.85
2019-05-07T12:59:26.892Z,9.15
2019-05-07T13:02:21.419Z,11.30
2019-05-07T13:04:41.805Z,9.78
2019-05-07T13:07:29.201Z,10.13
2019-05-07T13:09:59.645Z,11.75
2019-05-07T13:12:32.703Z,10.95
2019-05-07T13:15:02.967Z,11.68
2019-05-07T13:17:34.382Z,11.53
2019-05-07T13:20:17.929Z,9.80
2019-05-07T13:22:47.056Z,10.58
2019-05-07T13:25:18.252Z,11.03
2019-05-07T13:27:47.757Z,11.30
2019-05-07T13:30:17.737Z,9.47
2019-05-07T13:33:12.374Z,10.65
2019-05-07T13:35:44.556Z,10.05
2019-05-07T13:38:51.975Z,10.43
2019-05-07T13:41:56.086Z,13.60
2019-05-07T13:44:33.332Z,9.83
2019-05-07T13:47:21.915Z,11.15
2019-05-07T13:49:53.741Z,9.75
2019-05-07T13:52:24.080Z,6.60
2019-05-07T13:54:54.028Z,14.30
2019-05-07T13:57:24.081Z,11.33
2019-05-07T13:59:54.334Z,7.08
2019-05-07T14:02:26.083Z,12.45
2019-05-07T14:04:55.729Z,11.63
2019-05-07T14:07:26.760Z,7.50
2019-05-07T14:09:56.317Z,11.65
2019-05-07T14:12:29.459Z,8.85
2019-05-07T14:14:59.027Z,7.53
2019-05-07T14:17:28.545Z,10.78
2019-05-07T14:19:58.076Z,7.55
2019-05-07T14:22:27.721Z,8.73
2019-05-07T14:24:57.255Z,8.80
2019-05-07T14:27:26.931Z,9.08
2019-05-07T14:29:56.501Z,9.63
2019-05-07T14:32:52.560Z,7.83
2019-05-07T14:35:48.702Z,8.68
2019-05-07T14:38:25.459Z,8.03
2019-05-07T14:40:54.975Z,7.85
2019-05-07T14:43:34.612Z,10.80
2019-05-07T14:46:04.393Z,9.93
2019-05-07T14:48:36.233Z,9.10
2019-05-07T14:51:05.295Z,11.85
2019-05-07T14:53:34.851Z,8.53
2019-05-07T14:56:04.406Z,10.43
2019-05-07T14:58:34.119Z,8.73
2019-05-07T15:01:03.741Z,10.10
2019-05-07T15:03:33.260Z,8.75
2019-05-07T15:06:02.936Z,6.00
2019-05-07T15:08:33.439Z,7.58
2019-05-07T15:11:03.101Z,6.28
2019-05-07T15:13:32.741Z,5.08
2019-05-07T15:16:03.098Z,7.55
2019-05-07T15:18:52.969Z,7.90
2019-05-07T15:21:22.984Z,6.75
2019-05-07T15:23:56.797Z,9.95
2019-05-07T15:26:27.465Z,7.10
2019-05-07T15:29:12.034Z,8.98
2019-05-07T15:32:18.736Z,6.70
2019-05-07T15:34:48.251Z,12.47
2019-05-07T15:37:18.707Z,6.70
2019-05-07T15:39:48.501Z,5.30
2019-05-07T15:42:18.067Z,8.58
2019-05-07T15:44:48.539Z,9.85
2019-05-07T15:47:23.471Z,8.17
2019-05-07T15:49:53.009Z,10.43
2019-05-07T15:52:51.462Z,8.40
2019-05-07T15:55:15.738Z,13.95
2019-05-07T15:57:45.550Z,15.10
2019-05-07T16:00:17.986Z,10.70
2019-05-07T16:02:53.565Z,7.85
2019-05-07T16:05:22.438Z,8.20
2019-05-07T16:07:52.473Z,7.17
2019-05-07T16:10:23.290Z,10.80
2019-05-07T16:12:53.433Z,6.50
2019-05-07T16:15:22.997Z,6.60
2019-05-07T16:17:57.618Z,8.90
2019-05-07T16:20:27.138Z,6.42
2019-05-07T16:23:12.118Z,6.50
2019-05-07T16:25:32.870Z,7.92
2019-05-07T16:28:04.897Z,6.20
2019-05-07T16:30:34.256Z,11.63
2019-05-07T16:33:03.763Z,6.90
2019-05-07T16:35:37.528Z,5.93
2019-05-07T16:38:07.775Z,7.20
2019-05-07T16:40:37.302Z,4.50
2019-05-07T16:43:06.847Z,6.05
2019-05-07T16:45:36.801Z,6.20
2019-05-07T16:48:06.397Z,6.80
2019-05-07T16:50:36.883Z,6.53
2019-05-07T16:53:06.842Z,8.13
2019-05-07T16:55:37.148Z,7.35
2019-05-07T16:58:12.569Z,8.65
2019-05-07T17:00:45.096Z,7.87
2019-05-07T17:03:19.112Z,7.15
2019-05-07T17:05:49.034Z,8.57
2019-05-07T17:08:26.633Z,5.95
2019-05-07T17:10:56.589Z,6.60
2019-05-07T17:13:26.370Z,6.10
2019-05-07T17:16:03.375Z,8.08
2019-05-07T17:18:35.563Z,8.08
2019-05-07T17:21:06.019Z,7.78
2019-05-07T17:23:44.238Z,14.25
2019-05-07T17:26:06.767Z,16.67
2019-05-07T17:28:36.561Z,13.03
2019-05-07T17:31:06.226Z,17.47
2019-05-07T17:33:35.787Z,13.70
2019-05-07T17:36:05.586Z,15.87
2019-05-07T17:38:35.096Z,14.58
2019-05-07T17:41:13.053Z,13.90
2019-05-07T17:43:36.327Z,19.73
2019-05-07T17:46:07.762Z,16.97
2019-05-07T17:48:37.751Z,15.77
2019-05-07T17:51:26.771Z,20.12
2019-05-07T17:54:00.159Z,16.30
2019-05-07T17:56:32.052Z,17.37
2019-05-07T17:59:02.888Z,17.12
2019-05-07T18:01:59.216Z,12.73
2019-05-07T18:04:36.549Z,12.07
2019-05-07T18:07:03.436Z,15.17
2019-05-07T18:09:33.823Z,11.97
2019-05-07T18:12:03.709Z,12.67
2019-05-07T18:14:33.447Z,15.17
2019-05-07T18:17:08.843Z,14.30
2019-05-07T18:19:38.535Z,13.97
2019-05-07T18:22:34.758Z,16.47
2019-05-07T18:25:46.209Z,16.77
2019-05-07T18:28:08.119Z,15.57
2019-05-07T18:30:37.691Z,17.57
2019-05-07T18:33:25.558Z,19.48
2019-05-07T18:35:55.165Z,17.23
2019-05-07T18:38:24.697Z,15.13
2019-05-07T18:40:54.221Z,16.33
2019-05-07T18:43:23.750Z,13.47
2019-05-07T18:45:53.267Z,16.63
2019-05-07T18:48:22.783Z,18.42
2019-05-07T18:50:52.366Z,13.65
2019-05-07T18:53:22.902Z,11.50
2019-05-07T18:55:52.425Z,15.73
2019-05-07T18:58:24.090Z,17.17
2019-05-07T19:01:11.769Z,14.75
2019-05-07T19:03:41.950Z,13.23
2019-05-07T19:06:13.366Z,13.87
2019-05-07T19:08:43.206Z,13.25
2019-05-07T19:11:12.832Z,17.62
2019-05-07T19:13:42.438Z,16.05
2019-05-07T19:16:12.674Z,12.25
2019-05-07T19:18:43.216Z,16.65
2019-05-07T19:21:12.917Z,13.97
2019-05-07T19:23:42.579Z,16.93
2019-05-07T19:26:13.328Z,14.20
2019-05-07T19:28:44.030Z,13.78
2019-05-07T19:31:13.527Z,17.00
2019-05-07T19:33:43.063Z,13.18
2019-05-07T19:36:12.748Z,16.60
2019-05-07T19:38:42.423Z,14.30
2019-05-07T19:41:12.443Z,14.27
2019-05-07T19:43:42.143Z,13.65
2019-05-07T19:46:12.628Z,14.50
2019-05-07T19:48:44.057Z,15.23
2019-05-07T19:51:13.294Z,16.17
2019-05-07T19:53:42.793Z,16.32
2019-05-07T19:56:17.989Z,16.12
2019-05-07T19:58:47.760Z,16.60
2019-05-07T20:01:22.784Z,18.70
2019-05-07T20:03:53.002Z,15.30
2019-05-07T20:06:23.453Z,15.73
2019-05-07T20:08:53.161Z,17.23
2019-05-07T20:11:28.525Z,16.27
2019-05-07T20:13:58.115Z,17.07
2019-05-07T20:16:27.832Z,15.10
2019-05-07T20:18:57.351Z,14.28
2019-05-07T20:21:26.959Z,13.68
2019-05-07T20:23:56.481Z,16.07
2019-05-07T20:26:26.009Z,17.03
2019-05-07T20:28:55.519Z,15.30
2019-05-07T20:31:25.030Z,13.80
2019-05-07T20:33:54.586Z,17.00
2019-05-07T20:36:24.162Z,17.43
2019-05-07T20:38:53.681Z,20.90
2019-05-07T20:41:23.461Z,13.43
2019-05-07T20:43:53.084Z,18.07
2019-05-07T20:46:22.594Z,17.12
2019-05-07T20:48:52.666Z,23.27
2019-05-07T20:51:23.085Z,18.70
2019-05-07T20:54:14.839Z,20.67
2019-05-07T20:56:55.877Z,19.25
2019-05-07T20:59:25.444Z,17.30
2019-05-07T21:01:54.948Z,21.77
2019-05-07T21:04:24.571Z,18.90
2019-05-07T21:06:54.150Z,18.55
2019-05-07T21:09:23.679Z,17.25
2019-05-07T21:11:53.171Z,20.90
2019-05-07T21:14:22.922Z,17.03
2019-05-07T21:16:52.466Z,18.10
2019-05-07T21:19:22.402Z,17.80
2019-05-07T21:21:52.103Z,17.02
2019-05-07T21:24:22.534Z,17.40
2019-05-07T21:26:53.064Z,17.23
2019-05-07T21:29:22.882Z,20.00
2019-05-07T21:31:52.548Z,18.12
2019-05-07T21:34:23.001Z,20.87
2019-05-07T21:36:52.695Z,18.60
2019-05-07T21:39:22.459Z,17.00
2019-05-07T21:41:52.132Z,16.55
2019-05-07T21:44:25.253Z,17.20
2019-05-07T21:46:53.816Z,16.27
2019-05-07T21:49:23.353Z,23.23
2019-05-07T21:51:54.617Z,18.85
2019-05-07T21:54:38.855Z,18.70
2019-05-07T21:57:32.830Z,17.95
2019-05-07T22:00:15.585Z,16.00
2019-05-07T22:02:46.723Z,17.77
2019-05-07T22:05:16.356Z,20.92
2019-05-07T22:07:45.878Z,22.85
2019-05-07T22:10:15.664Z,20.37
2019-05-07T22:12:45.241Z,19.62
2019-05-07T22:15:14.827Z,17.90
2019-05-07T22:17:44.490Z,19.30
2019-05-07T22:20:14.206Z,20.67
2019-05-07T22:22:43.707Z,19.67
2019-05-07T22:25:13.225Z,21.37
2019-05-07T22:27:44.341Z,19.87
2019-05-07T22:30:19.621Z,19.84
2019-05-07T22:32:56.456Z,19.13
2019-05-07T22:35:29.783Z,20.83
2019-05-07T22:38:00.900Z,21.07
2019-05-07T22:40:32.185Z,20.20
2019-05-07T22:43:03.248Z,18.97
2019-05-07T22:45:32.797Z,19.60
2019-05-07T22:48:02.910Z,19.02
2019-05-07T22:50:33.139Z,18.85
2019-05-07T22:53:02.916Z,19.33
2019-05-07T22:55:32.758Z,20.57
2019-05-07T22:58:07.088Z,19.47
2019-05-07T23:00:42.530Z,22.30
2019-05-07T23:03:12.344Z,23.12
2019-05-07T23:05:44.950Z,17.70
2019-05-07T23:08:14.114Z,21.23
2019-05-07T23:10:44.605Z,18.20
2019-05-07T23:13:14.220Z,20.43
2019-05-07T23:15:44.746Z,21.80
2019-05-07T23:18:14.267Z,22.07
2019-05-07T23:20:43.843Z,22.30
2019-05-07T23:23:14.221Z,22.60
2019-05-07T23:25:43.756Z,23.90
2019-05-07T23:28:13.276Z,21.60
2019-05-07T23:30:44.359Z,20.07
2019-05-07T23:33:14.002Z,23.75
2019-05-07T23:35:43.598Z,20.23
2019-05-07T23:38:15.905Z,23.12
2019-05-07T23:41:02.167Z,20.10
2019-05-07T23:43:32.006Z,19.60
2019-05-07T23:46:02.490Z,21.05
2019-05-07T23:48:32.222Z,21.82
2019-05-07T23:51:02.286Z,21.05
2019-05-07T23:53:31.859Z,20.68
2019-05-07T23:56:02.846Z,24.92
2019-05-07T23:58:32.693Z,24.63
